Time;durP1;ratioP1;P1;durP2;ratioP2;P2;SDS_P1;SDS_P2;PMS_P1;PMS_P2;Temp;Humidity;BMP_temperature;BMP_pressure;BME280_temperature;BME280_humidity;BME280_pressure;Samples;Min_cycle;Max_cycle;Signal;HPM_P1;HPM_P2
2023/03/02 00:02:09;;;;;;;4.30;2.58;;;3.40;99.90;;;;;;5065239;28;20492;-79
2023/03/02 00:04:45;;;;;;;2.97;2.30;;;3.40;99.90;;;;;;5096207;28;20020;-80
2023/03/02 00:07:15;;;;;;;3.85;2.58;;;3.40;99.90;;;;;;5116412;28;20016;-80
2023/03/02 00:09:43;;;;;;;5.07;2.90;;;3.40;99.90;;;;;;5100381;28;20085;-80
2023/03/02 00:12:09;;;;;;;3.85;2.80;;;3.30;99.90;;;;;;5099185;28;20016;-81
2023/03/02 00:14:36;;;;;;;3.88;2.53;;;3.30;99.90;;;;;;5078378;28;20111;-80
2023/03/02 00:17:03;;;;;;;4.35;2.67;;;3.40;99.90;;;;;;5099091;28;20028;-81
2023/03/02 00:19:28;;;;;;;4.43;2.85;;;3.30;99.90;;;;;;5081784;28;20054;-81
2023/03/02 00:21:54;;;;;;;4.40;2.65;;;3.30;99.90;;;;;;5099617;28;20025;-81
2023/03/02 00:24:20;;;;;;;4.00;2.38;;;3.20;99.90;;;;;;5099784;28;20042;-81
2023/03/02 00:26:45;;;;;;;4.72;2.70;;;3.20;99.90;;;;;;5099612;28;20016;-81
2023/03/02 00:29:11;;;;;;;4.90;2.70;;;3.10;99.90;;;;;;5099398;28;20012;-81
2023/03/02 00:31:37;;;;;;;3.65;2.45;;;3.10;99.90;;;;;;5081150;28;20503;-81
2023/03/02 00:34:03;;;;;;;5.60;2.70;;;3.10;99.90;;;;;;5082045;28;20476;-82
2023/03/02 00:36:28;;;;;;;3.95;2.80;;;3.10;99.90;;;;;;5099753;28;20030;-82
2023/03/02 00:38:56;;;;;;;4.88;2.63;;;3.10;99.90;;;;;;5100163;28;20062;-82
2023/03/02 00:41:22;;;;;;;3.60;2.60;;;3.10;99.90;;;;;;5099679;28;20031;-82
2023/03/02 00:43:48;;;;;;;3.53;2.45;;;3.10;99.90;;;;;;5082150;28;20046;-82
2023/03/02 00:46:19;;;;;;;3.50;2.33;;;3.10;99.90;;;;;;5099719;28;20552;-82
2023/03/02 00:48:45;;;;;;;5.32;2.95;;;3.10;99.90;;;;;;5079343;28;20020;-82
2023/03/02 00:51:12;;;;;;;4.10;2.60;;;3.10;99.90;;;;;;5081600;28;20047;-82
2023/03/02 00:53:38;;;;;;;3.92;2.75;;;3.00;99.90;;;;;;5085677;28;20118;-82
2023/03/02 00:56:05;;;;;;;4.57;2.75;;;3.00;99.90;;;;;;5099541;28;20028;-87
2023/03/02 00:58:31;;;;;;;3.53;2.38;;;3.00;99.90;;;;;;5081895;28;20030;-87
2023/03/02 01:01:03;;;;;;;3.92;2.60;;;3.00;99.90;;;;;;5082864;28;20900;-86
2023/03/02 01:03:29;;;;;;;3.97;2.42;;;3.00;99.90;;;;;;5093634;28;20016;-87
2023/03/02 01:05:55;;;;;;;4.35;2.45;;;3.00;99.90;;;;;;5088486;28;20050;-87
2023/03/02 01:08:22;;;;;;;4.43;2.80;;;3.00;99.90;;;;;;5082463;28;20020;-86
2023/03/02 01:10:48;;;;;;;4.68;3.17;;;3.00;99.90;;;;;;5099444;28;20031;-86
2023/03/02 01:13:13;;;;;;;5.20;3.13;;;2.90;99.90;;;;;;5073511;28;20029;-85
2023/03/02 01:15:39;;;;;;;4.18;2.63;;;3.00;99.90;;;;;;5094225;28;20464;-85
2023/03/02 01:18:05;;;;;;;3.65;2.30;;;2.90;99.90;;;;;;5080337;28;20028;-85
2023/03/02 01:20:30;;;;;;;3.45;2.40;;;2.90;99.90;;;;;;5079467;28;20031;-85
2023/03/02 01:22:56;;;;;;;3.60;2.67;;;2.90;99.90;;;;;;5069508;28;20124;-85
2023/03/02 01:25:22;;;;;;;3.75;2.85;;;2.90;99.90;;;;;;5098803;28;20057;-83
2023/03/02 01:27:47;;;;;;;3.83;2.70;;;2.80;99.90;;;;;;5081146;28;20464;-82
2023/03/02 01:30:13;;;;;;;3.70;2.45;;;2.80;99.90;;;;;;5099142;28;20052;-86
2023/03/02 01:32:39;;;;;;;3.47;2.40;;;2.80;99.90;;;;;;5073357;28;20067;-84
2023/03/02 01:35:05;;;;;;;3.88;2.83;;;2.80;99.90;;;;;;5097031;28;20102;-82
2023/03/02 01:37:30;;;;;;;3.55;2.47;;;2.70;99.90;;;;;;5099191;28;20055;-82
2023/03/02 01:39:56;;;;;;;5.13;2.58;;;2.70;99.90;;;;;;5098611;28;20036;-80
2023/03/02 01:42:22;;;;;;;4.78;2.80;;;2.70;99.90;;;;;;5099066;28;20404;-80
2023/03/02 01:44:56;;;;;;;3.22;2.25;;;2.70;99.90;;;;;;5080779;28;20027;-80
2023/03/02 01:47:31;;;;;;;3.80;2.83;;;2.70;99.90;;;;;;5078042;28;20075;-81
2023/03/02 01:50:05;;;;;;;3.63;2.28;;;2.70;99.90;;;;;;5111384;28;20059;-79
2023/03/02 01:52:33;;;;;;;4.45;2.90;;;2.70;99.90;;;;;;5111995;28;20028;-79
2023/03/02 01:55:02;;;;;;;4.30;2.35;;;2.60;99.90;;;;;;5098697;28;20032;-79
2023/03/02 01:57:32;;;;;;;3.58;2.30;;;2.60;99.90;;;;;;5113381;28;20119;-80
2023/03/02 02:00:07;;;;;;;4.57;2.60;;;2.50;99.90;;;;;;5084995;28;20036;-79
2023/03/02 02:02:33;;;;;;;3.35;2.33;;;2.60;99.90;;;;;;5112196;28;20539;-78
2023/03/02 02:04:59;;;;;;;4.03;2.38;;;2.50;99.90;;;;;;5090044;28;20027;-78
2023/03/02 02:07:26;;;;;;;3.78;2.38;;;2.60;99.90;;;;;;5098240;28;20480;-79
2023/03/02 02:09:53;;;;;;;3.35;2.30;;;2.50;99.90;;;;;;5100720;28;20098;-85
2023/03/02 02:12:21;;;;;;;5.03;2.67;;;2.50;99.90;;;;;;5101996;28;20028;-83
2023/03/02 02:14:48;;;;;;;5.97;2.75;;;2.50;99.90;;;;;;5100021;28;20035;-84
2023/03/02 02:17:16;;;;;;;4.03;2.30;;;2.50;99.90;;;;;;5092246;28;20518;-85
2023/03/02 02:20:06;;;;;;;4.32;2.83;;;2.60;99.90;;;;;;5091238;28;20123;-85
2023/03/02 02:22:51;;;;;;;4.53;2.53;;;2.40;99.90;;;;;;5107288;28;20107;-85
2023/03/02 02:25:54;;;;;;;3.45;2.60;;;2.50;99.90;;;;;;5097988;28;20020;-85
2023/03/02 02:28:47;;;;;;;4.45;2.50;;;2.40;99.90;;;;;;5073124;28;20059;-83
2023/03/02 02:31:25;;;;;;;3.75;2.45;;;2.40;99.90;;;;;;5097854;28;20077;-82
2023/03/02 02:33:58;;;;;;;3.75;2.20;;;2.40;99.90;;;;;;5113879;28;20384;-81
2023/03/02 02:36:31;;;;;;;5.18;2.50;;;2.30;99.90;;;;;;5097652;28;20484;-81
2023/03/02 02:39:01;;;;;;;2.92;1.80;;;2.40;99.90;;;;;;5079904;28;20459;-82
2023/03/02 02:41:32;;;;;;;3.33;2.45;;;2.40;99.90;;;;;;5079348;28;20032;-87
2023/03/02 02:43:58;;;;;;;3.92;2.35;;;2.40;99.90;;;;;;5097445;28;20035;-84
2023/03/02 02:46:24;;;;;;;3.50;2.70;;;2.30;99.90;;;;;;5079665;28;20024;-82
2023/03/02 02:48:50;;;;;;;5.70;2.83;;;2.30;99.90;;;;;;5096326;28;20032;-82
2023/03/02 02:51:23;;;;;;;3.83;2.30;;;2.30;99.90;;;;;;5080202;28;20484;-82
2023/03/02 02:53:57;;;;;;;3.60;2.10;;;2.20;99.90;;;;;;5096100;28;20028;-82
2023/03/02 02:56:25;;;;;;;5.47;2.80;;;2.20;99.90;;;;;;5096184;28;20089;-82
2023/03/02 02:58:54;;;;;;;5.57;2.97;;;2.20;99.90;;;;;;5089278;28;20050;-82
2023/03/02 03:01:24;;;;;;;5.75;3.08;;;2.20;99.90;;;;;;5114310;28;20032;-82
2023/03/02 03:03:56;;;;;;;4.50;2.67;;;2.20;99.90;;;;;;5112665;28;20020;-82
2023/03/02 03:06:36;;;;;;;3.80;2.60;;;2.20;99.90;;;;;;5093021;28;20105;-82
2023/03/02 03:09:06;;;;;;;3.58;2.30;;;2.20;99.90;;;;;;5087980;28;20024;-82
2023/03/02 03:11:35;;;;;;;3.42;2.30;;;2.20;99.90;;;;;;5083602;28;20373;-82
2023/03/02 03:14:11;;;;;;;4.75;2.72;;;2.20;99.90;;;;;;5104687;28;20031;-82
2023/03/02 03:16:38;;;;;;;3.75;2.20;;;2.10;99.90;;;;;;5101335;28;20028;-82
2023/03/02 03:19:15;;;;;;;3.65;2.50;;;2.20;99.90;;;;;;5079382;28;20032;-82
2023/03/02 03:21:41;;;;;;;4.63;2.58;;;2.10;99.90;;;;;;5095856;28;20035;-81
2023/03/02 03:24:07;;;;;;;3.40;2.10;;;2.20;99.90;;;;;;5095529;28;20031;-82
2023/03/02 03:26:33;;;;;;;3.15;2.22;;;2.20;99.90;;;;;;5102703;28;20034;-84
2023/03/02 03:28:58;;;;;;;2.97;2.40;;;2.20;99.90;;;;;;5099127;28;20032;-84
2023/03/02 03:31:26;;;;;;;4.30;3.03;;;2.10;99.90;;;;;;5117401;28;20086;-84
2023/03/02 03:33:59;;;;;;;4.43;2.63;;;2.10;99.90;;;;;;5102257;28;20036;-83
2023/03/02 03:36:26;;;;;;;5.78;2.97;;;2.10;99.90;;;;;;5090561;28;20027;-82
2023/03/02 03:38:52;;;;;;;4.80;2.88;;;2.00;99.90;;;;;;5087530;28;20024;-82
2023/03/02 03:41:17;;;;;;;5.28;3.13;;;2.10;99.90;;;;;;5115514;28;20080;-83
2023/03/02 03:43:43;;;;;;;6.20;3.30;;;2.10;99.90;;;;;;5113664;28;20024;-83
2023/03/02 03:46:09;;;;;;;4.75;3.30;;;2.10;99.90;;;;;;5092999;28;20110;-84
2023/03/02 03:48:34;;;;;;;4.47;2.90;;;2.10;99.90;;;;;;5108498;28;20031;-84
2023/03/02 03:51:00;;;;;;;4.03;3.10;;;2.00;99.90;;;;;;5116914;28;20052;-84
2023/03/02 03:53:26;;;;;;;4.78;2.30;;;1.90;99.90;;;;;;5110258;28;20023;-78
2023/03/02 03:55:52;;;;;;;4.53;2.78;;;1.90;99.90;;;;;;5110596;28;20073;-79
2023/03/02 03:58:18;;;;;;;4.63;2.55;;;1.90;99.90;;;;;;5102749;28;20024;-79
2023/03/02 04:00:46;;;;;;;3.17;2.33;;;1.80;99.90;;;;;;5116759;28;20107;-81
2023/03/02 04:03:13;;;;;;;4.55;2.58;;;1.90;99.90;;;;;;5117799;28;20020;-80
2023/03/02 04:05:39;;;;;;;5.03;3.08;;;1.80;99.90;;;;;;5117063;28;20509;-80
2023/03/02 04:08:05;;;;;;;4.00;2.42;;;1.80;99.90;;;;;;5096885;28;20024;-80
2023/03/02 04:10:31;;;;;;;4.00;2.22;;;1.80;99.90;;;;;;5098939;28;20028;-80
2023/03/02 04:12:57;;;;;;;3.85;2.42;;;1.80;99.90;;;;;;5116680;28;20395;-80
2023/03/02 04:15:23;;;;;;;3.03;2.50;;;1.80;99.90;;;;;;5097567;28;20020;-80
2023/03/02 04:17:49;;;;;;;3.13;2.13;;;1.90;99.90;;;;;;5104147;28;20023;-80
2023/03/02 04:20:16;;;;;;;3.42;2.20;;;1.90;99.90;;;;;;5099314;28;20462;-84
2023/03/02 04:22:46;;;;;;;4.55;2.40;;;1.80;99.90;;;;;;5118106;28;20026;-82
2023/03/02 04:25:13;;;;;;;3.83;2.15;;;1.90;99.90;;;;;;5096075;28;20546;-85
2023/03/02 04:27:39;;;;;;;4.57;2.95;;;1.90;99.90;;;;;;5090159;28;20035;-84
2023/03/02 04:30:06;;;;;;;3.67;2.40;;;1.90;99.90;;;;;;5100534;28;20484;-85
2023/03/02 04:32:32;;;;;;;3.80;2.60;;;1.90;99.90;;;;;;5082120;28;20114;-83
2023/03/02 04:34:58;;;;;;;4.03;2.53;;;1.90;99.90;;;;;;5084118;28;20067;-85
2023/03/02 04:37:24;;;;;;;3.65;2.78;;;1.90;99.90;;;;;;5100285;28;20054;-86
2023/03/02 04:39:51;;;;;;;4.38;2.53;;;1.90;99.90;;;;;;5069976;28;20412;-87
2023/03/02 04:42:18;;;;;;;3.85;2.45;;;2.00;99.90;;;;;;5080346;28;20050;-87
2023/03/02 04:44:44;;;;;;;3.90;2.75;;;1.90;99.90;;;;;;5099951;28;20554;-88
2023/03/02 04:47:10;;;;;;;4.70;2.58;;;1.90;99.90;;;;;;5081802;28;20032;-87
2023/03/02 04:49:35;;;;;;;5.22;3.03;;;1.90;99.90;;;;;;5081536;28;20048;-86
2023/03/02 04:52:01;;;;;;;4.90;3.10;;;1.90;99.90;;;;;;5093614;28;20032;-86
2023/03/02 04:54:27;;;;;;;4.95;2.83;;;2.00;99.90;;;;;;5073142;28;20028;-82
2023/03/02 04:56:53;;;;;;;4.13;2.78;;;2.00;99.90;;;;;;5085656;28;20028;-84
2023/03/02 04:59:24;;;;;;;4.43;2.35;;;1.90;99.90;;;;;;5086558;28;20024;-83
2023/03/02 05:01:51;;;;;;;4.70;3.30;;;1.90;99.90;;;;;;5094958;28;20047;-80
2023/03/02 05:04:17;;;;;;;4.13;2.70;;;1.90;99.90;;;;;;5086849;28;20111;-81
2023/03/02 05:06:43;;;;;;;3.67;2.40;;;1.90;99.90;;;;;;5081760;28;20054;-83
2023/03/02 05:09:09;;;;;;;5.28;3.05;;;1.90;99.90;;;;;;5090337;28;20467;-84
2023/03/02 05:11:35;;;;;;;4.10;2.67;;;1.90;99.90;;;;;;5089745;28;20024;-84
2023/03/02 05:14:04;;;;;;;5.75;3.08;;;1.90;99.90;;;;;;5095251;28;20020;-83
2023/03/02 05:16:31;;;;;;;3.33;2.28;;;1.90;99.90;;;;;;5091649;28;20036;-82
2023/03/02 05:18:59;;;;;;;3.30;2.70;;;1.90;99.90;;;;;;5102196;28;20072;-83
2023/03/02 05:21:24;;;;;;;5.03;2.60;;;1.90;99.90;;;;;;5112480;28;20028;-83
2023/03/02 05:23:51;;;;;;;3.22;2.22;;;1.80;99.90;;;;;;5087887;28;20506;-87
2023/03/02 05:26:20;;;;;;;3.28;2.47;;;1.80;99.90;;;;;;5087530;28;20027;-87
2023/03/02 05:29:56;;;;;;;5.28;2.80;;;1.80;99.90;;;;;;5091693;28;20032;-90
2023/03/02 05:32:40;;;;;;;5.03;2.70;;;1.80;99.90;;;;;;5099088;28;20418;-89
2023/03/02 05:35:06;;;;;;;5.28;2.85;;;1.70;99.90;;;;;;5095969;28;20024;-79
2023/03/02 05:37:32;;;;;;;5.18;2.75;;;1.80;99.90;;;;;;5099054;28;20047;-79
2023/03/02 05:39:58;;;;;;;4.00;2.63;;;1.80;99.90;;;;;;5080539;28;20543;-78
2023/03/02 05:42:24;;;;;;;4.20;2.55;;;1.70;99.90;;;;;;5098713;28;20024;-78
2023/03/02 05:44:50;;;;;;;4.40;2.78;;;1.80;99.90;;;;;;5098917;28;20031;-78
2023/03/02 05:47:15;;;;;;;5.18;3.05;;;1.80;99.90;;;;;;5111754;28;20088;-78
2023/03/02 05:49:41;;;;;;;4.70;2.83;;;1.80;99.90;;;;;;5079124;28;20083;-78
2023/03/02 05:52:07;;;;;;;3.90;2.80;;;1.80;99.90;;;;;;5081821;28;20024;-81
2023/03/02 05:54:32;;;;;;;5.30;3.00;;;1.80;99.90;;;;;;5090775;28;20039;-78
2023/03/02 05:56:58;;;;;;;5.18;3.20;;;1.80;99.90;;;;;;5081128;28;20035;-78
2023/03/02 05:59:24;;;;;;;4.65;3.03;;;1.70;99.90;;;;;;5081869;28;20546;-79
2023/03/02 06:01:49;;;;;;;3.85;2.70;;;1.70;99.90;;;;;;5082512;28;20102;-86
2023/03/02 06:04:15;;;;;;;4.35;3.22;;;1.70;99.90;;;;;;5089627;28;20017;-85
2023/03/02 06:06:41;;;;;;;5.38;3.22;;;1.70;99.90;;;;;;5078338;28;20021;-86
2023/03/02 06:09:06;;;;;;;4.88;3.15;;;1.60;99.90;;;;;;5079847;28;20032;-85
2023/03/02 06:11:32;;;;;;;4.85;3.22;;;1.60;99.90;;;;;;5078256;28;20110;-86
2023/03/02 06:13:58;;;;;;;5.05;3.30;;;1.60;99.90;;;;;;5084944;28;20024;-86
2023/03/02 06:16:23;;;;;;;5.53;3.45;;;1.60;99.90;;;;;;5083621;28;20028;-86
2023/03/02 06:18:49;;;;;;;4.93;2.95;;;1.60;99.90;;;;;;5076985;28;20025;-84
2023/03/02 06:21:15;;;;;;;5.22;3.35;;;1.60;99.90;;;;;;5075620;28;20029;-85
2023/03/02 06:23:40;;;;;;;4.60;3.53;;;1.60;99.90;;;;;;5093800;28;20047;-85
2023/03/02 06:26:09;;;;;;;5.05;3.33;;;1.60;99.90;;;;;;5087486;28;20024;-80
2023/03/02 06:28:35;;;;;;;6.40;3.85;;;1.60;99.90;;;;;;5080412;28;20027;-79
2023/03/02 06:31:01;;;;;;;5.60;3.47;;;1.60;99.90;;;;;;5078455;28;20392;-79
2023/03/02 06:33:26;;;;;;;4.43;3.10;;;1.60;99.90;;;;;;5083521;28;20422;-78
2023/03/02 06:35:52;;;;;;;5.72;3.28;;;1.60;99.90;;;;;;5077066;28;20024;-78
2023/03/02 06:38:17;;;;;;;6.43;3.78;;;1.60;99.90;;;;;;5076735;28;20032;-78
2023/03/02 06:40:43;;;;;;;5.18;3.35;;;1.60;99.90;;;;;;5075668;28;20036;-78
2023/03/02 06:43:09;;;;;;;5.55;3.60;;;1.60;99.90;;;;;;5076956;28;20074;-78
2023/03/02 06:45:36;;;;;;;6.07;3.50;;;1.60;99.90;;;;;;5075479;28;20023;-78
2023/03/02 06:48:03;;;;;;;6.90;3.78;;;1.60;99.90;;;;;;5105942;28;20013;-78
2023/03/02 06:50:29;;;;;;;6.47;4.15;;;1.60;99.90;;;;;;5075366;28;20094;-84
2023/03/02 06:52:55;;;;;;;7.13;4.32;;;1.60;99.90;;;;;;5066021;28;20021;-84
2023/03/02 06:55:23;;;;;;;6.18;4.30;;;1.70;99.90;;;;;;5075852;28;20048;-84
2023/03/02 06:57:48;;;;;;;7.45;4.43;;;1.60;99.90;;;;;;5075930;28;20024;-82
2023/03/02 07:00:16;;;;;;;6.95;4.10;;;1.60;99.90;;;;;;5072684;28;20039;-82
2023/03/02 07:02:45;;;;;;;5.38;3.50;;;1.60;99.90;;;;;;5074871;28;20028;-83
2023/03/02 07:05:12;;;;;;;6.85;3.92;;;1.60;99.90;;;;;;5072792;28;20036;-82
2023/03/02 07:07:38;;;;;;;6.60;4.03;;;1.60;99.90;;;;;;5076029;28;20028;-77
2023/03/02 07:10:05;;;;;;;6.38;4.25;;;1.70;99.90;;;;;;5076567;28;20111;-75
2023/03/02 07:12:31;;;;;;;7.03;3.92;;;1.70;99.90;;;;;;5076559;28;20507;-76
2023/03/02 07:14:57;;;;;;;7.13;4.60;;;1.70;99.90;;;;;;5074375;28;20070;-76
2023/03/02 07:17:22;;;;;;;6.45;3.83;;;1.70;99.90;;;;;;5076876;28;20416;-76
2023/03/02 07:19:48;;;;;;;8.15;4.20;;;1.80;99.90;;;;;;5076343;28;20416;-77
2023/03/02 07:22:13;;;;;;;6.25;4.25;;;1.80;99.90;;;;;;5076161;28;20029;-79
2023/03/02 07:24:39;;;;;;;5.78;4.03;;;1.80;99.90;;;;;;5076566;28;20499;-77
2023/03/02 07:27:05;;;;;;;5.63;3.90;;;1.80;99.90;;;;;;5076169;28;20032;-77
2023/03/02 07:29:30;;;;;;;7.30;4.65;;;1.80;99.90;;;;;;5076822;28;20095;-77
2023/03/02 07:31:59;;;;;;;6.55;4.25;;;1.80;99.90;;;;;;5076075;28;20031;-78
2023/03/02 07:34:25;;;;;;;7.88;4.80;;;1.80;99.90;;;;;;5076454;28;20445;-77
2023/03/02 07:36:51;;;;;;;7.47;4.63;;;1.80;99.90;;;;;;5076566;28;20021;-79
2023/03/02 07:39:18;;;;;;;6.90;4.00;;;1.80;99.90;;;;;;5075568;28;20017;-80
2023/03/02 07:41:43;;;;;;;6.80;4.53;;;1.80;99.90;;;;;;5074861;28;20029;-79
2023/03/02 07:44:10;;;;;;;6.75;4.35;;;1.80;99.90;;;;;;5076207;28;20501;-79
2023/03/02 07:46:35;;;;;;;7.15;4.18;;;1.80;99.90;;;;;;5075936;28;20025;-80
2023/03/02 07:49:01;;;;;;;6.90;4.15;;;1.90;99.90;;;;;;5076295;28;20550;-80
2023/03/02 07:51:27;;;;;;;8.13;5.03;;;1.90;99.90;;;;;;5096993;28;20036;-76
2023/03/02 07:53:53;;;;;;;7.90;4.97;;;1.90;99.90;;;;;;5096237;28;20055;-79
2023/03/02 07:56:19;;;;;;;7.28;5.18;;;1.90;99.90;;;;;;5088759;28;20043;-78
2023/03/02 07:58:45;;;;;;;7.40;4.22;;;2.00;99.90;;;;;;5091487;28;20169;-80
2023/03/02 08:01:11;;;;;;;7.32;4.65;;;2.00;99.90;;;;;;5085975;28;20118;-80
2023/03/02 08:03:37;;;;;;;8.63;4.88;;;2.00;99.90;;;;;;5100829;28;20567;-83
2023/03/02 08:06:11;;;;;;;7.53;4.47;;;2.10;99.90;;;;;;5078891;28;20403;-80
2023/03/02 08:08:37;;;;;;;5.72;4.07;;;2.10;99.90;;;;;;5096699;28;20021;-81
2023/03/02 08:11:07;;;;;;;8.30;4.57;;;2.20;99.90;;;;;;5096220;28;20564;-81
2023/03/02 08:13:33;;;;;;;7.07;4.82;;;2.20;99.90;;;;;;5078132;28;20024;-81
2023/03/02 08:16:04;;;;;;;7.65;5.00;;;2.30;99.90;;;;;;5078553;28;20031;-81
2023/03/02 08:18:29;;;;;;;7.22;4.68;;;2.30;99.90;;;;;;5096559;28;20028;-82
2023/03/02 08:20:55;;;;;;;7.75;4.43;;;2.40;99.90;;;;;;5077686;28;20043;-82
2023/03/02 08:23:21;;;;;;;6.30;4.18;;;2.40;99.90;;;;;;5082549;28;20028;-75
2023/03/02 08:25:47;;;;;;;8.35;4.97;;;2.30;99.90;;;;;;5096563;28;20054;-78
2023/03/02 08:28:12;;;;;;;6.75;4.90;;;2.50;99.90;;;;;;5082028;28;20028;-74
2023/03/02 08:30:38;;;;;;;8.13;4.93;;;2.50;99.90;;;;;;5071047;28;20032;-69
2023/03/02 08:33:04;;;;;;;7.75;5.28;;;2.60;99.90;;;;;;5093769;28;20024;-68
2023/03/02 08:35:30;;;;;;;6.55;4.43;;;2.60;99.90;;;;;;5099697;28;20028;-68
2023/03/02 08:37:55;;;;;;;6.38;4.40;;;2.70;99.90;;;;;;5100009;28;20053;-68
2023/03/02 08:40:21;;;;;;;7.00;5.05;;;2.80;99.90;;;;;;5099430;28;20024;-68
2023/03/02 08:42:48;;;;;;;8.02;4.95;;;2.80;99.90;;;;;;5096597;28;20027;-69
2023/03/02 08:45:14;;;;;;;8.02;5.35;;;2.80;99.90;;;;;;5098755;28;20028;-69
2023/03/02 08:47:40;;;;;;;7.97;5.35;;;2.90;99.90;;;;;;5095749;28;20050;-68
2023/03/02 08:50:05;;;;;;;9.23;5.60;;;2.90;99.90;;;;;;5096397;28;20540;-68
2023/03/02 08:52:34;;;;;;;8.13;5.43;;;2.90;99.90;;;;;;5078344;28;20388;-70
2023/03/02 08:55:00;;;;;;;9.07;5.63;;;2.90;99.90;;;;;;5078332;28;20457;-70
2023/03/02 08:57:25;;;;;;;11.38;6.05;;;3.00;99.90;;;;;;5096514;28;20055;-70
2023/03/02 08:59:51;;;;;;;9.82;6.10;;;3.00;99.90;;;;;;5078238;28;20487;-69
2023/03/02 09:02:17;;;;;;;9.57;5.63;;;3.00;99.90;;;;;;5098557;28;20024;-70
2023/03/02 09:04:43;;;;;;;9.82;6.05;;;3.00;99.90;;;;;;5097006;28;20027;-70
2023/03/02 09:07:09;;;;;;;8.73;6.13;;;3.00;99.90;;;;;;5078074;28;20483;-70
2023/03/02 09:09:34;;;;;;;10.20;6.50;;;3.10;99.90;;;;;;5078053;28;20020;-70
2023/03/02 09:12:00;;;;;;;8.70;6.10;;;3.10;99.90;;;;;;5078031;28;20056;-69
2023/03/02 09:14:26;;;;;;;9.95;6.68;;;3.20;99.90;;;;;;5099297;28;20050;-69
2023/03/02 09:16:52;;;;;;;10.57;7.20;;;3.20;99.90;;;;;;5099307;28;20051;-69
2023/03/02 09:19:18;;;;;;;8.02;5.75;;;3.30;99.90;;;;;;5099416;28;20500;-68
2023/03/02 09:21:44;;;;;;;11.27;6.43;;;3.30;99.90;;;;;;5099139;28;20028;-69
2023/03/02 09:24:10;;;;;;;13.52;7.45;;;3.40;99.90;;;;;;5081018;28;20487;-68
2023/03/02 09:26:37;;;;;;;9.70;6.55;;;3.40;99.90;;;;;;5095986;28;20055;-69
2023/03/02 09:29:02;;;;;;;9.15;6.30;;;3.50;99.90;;;;;;5095111;28;20020;-69
2023/03/02 09:31:28;;;;;;;8.77;6.57;;;3.50;99.90;;;;;;5098214;28;20062;-69
2023/03/02 09:33:55;;;;;;;9.38;6.28;;;3.60;99.90;;;;;;5098529;28;20038;-68
2023/03/02 09:36:23;;;;;;;10.13;6.35;;;3.70;99.90;;;;;;5078495;28;20087;-68
2023/03/02 09:38:49;;;;;;;8.98;6.30;;;3.70;99.90;;;;;;5097569;28;20024;-68
2023/03/02 09:41:18;;;;;;;9.63;6.40;;;3.80;99.90;;;;;;5079530;28;20038;-68
2023/03/02 09:44:20;;;;;;;8.60;6.32;;;3.80;99.90;;;;;;5098014;28;20030;-69
2023/03/02 09:47:14;;;;;;;9.68;6.72;;;3.90;99.90;;;;;;5096657;28;20024;-68
2023/03/02 09:49:54;;;;;;;10.10;7.17;;;4.00;99.90;;;;;;5035753;28;20044;-69
2023/03/02 09:52:51;;;;;;;9.05;6.57;;;4.10;99.90;;;;;;5079923;28;20120;-69
2023/03/02 09:55:21;;;;;;;9.05;6.30;;;4.10;99.90;;;;;;5098335;28;20422;-69
2023/03/02 09:57:47;;;;;;;9.50;6.88;;;4.20;99.90;;;;;;5096539;28;20031;-69
2023/03/02 10:00:15;;;;;;;9.75;6.93;;;4.20;99.90;;;;;;5098109;28;20024;-69
2023/03/02 10:03:05;;;;;;;10.43;7.10;;;4.30;99.90;;;;;;5097973;28;20016;-69
2023/03/02 10:05:42;;;;;;;9.43;6.38;;;4.40;99.90;;;;;;5097519;28;20026;-69
2023/03/02 10:08:23;;;;;;;11.13;7.45;;;4.40;99.90;;;;;;5079243;28;20028;-69
2023/03/02 10:11:00;;;;;;;13.38;7.55;;;4.50;99.90;;;;;;5079485;28;20404;-69
2023/03/02 10:13:45;;;;;;;10.82;7.43;;;4.60;99.90;;;;;;5079530;28;20024;-69
2023/03/02 10:16:25;;;;;;;10.18;7.15;;;4.60;99.90;;;;;;5077868;28;20077;-69
2023/03/02 10:18:51;;;;;;;11.52;7.22;;;4.70;99.90;;;;;;5079291;28;20032;-69
2023/03/02 10:21:36;;;;;;;11.45;7.50;;;4.70;99.90;;;;;;5097462;28;20027;-69
2023/03/02 10:24:30;;;;;;;10.75;7.63;;;4.80;99.90;;;;;;5097575;28;20489;-69
2023/03/02 10:27:12;;;;;;;9.80;6.75;;;4.80;99.90;;;;;;5095974;28;20016;-69
2023/03/02 10:29:42;;;;;;;10.77;7.03;;;4.90;99.90;;;;;;5097370;28;20487;-69
2023/03/02 10:32:18;;;;;;;11.13;7.28;;;5.00;99.90;;;;;;5097457;28;20081;-69
2023/03/02 10:34:45;;;;;;;10.85;7.47;;;5.10;99.90;;;;;;5097362;28;20027;-69
2023/03/02 10:37:16;;;;;;;10.35;7.47;;;5.20;99.90;;;;;;5095985;28;20043;-69
2023/03/02 10:39:42;;;;;;;12.73;8.23;;;5.30;99.90;;;;;;5097033;28;20095;-69
2023/03/02 10:42:20;;;;;;;11.90;7.85;;;5.30;99.90;;;;;;5079131;28;20054;-69
2023/03/02 10:44:50;;;;;;;10.93;7.90;;;5.40;99.90;;;;;;5097250;28;20024;-68
2023/03/02 10:47:20;;;;;;;12.55;8.63;;;5.50;99.90;;;;;;5077539;28;20027;-69
2023/03/02 10:49:46;;;;;;;12.77;8.43;;;5.50;99.90;;;;;;5083358;28;20048;-69
2023/03/02 10:52:15;;;;;;;12.77;7.93;;;5.60;99.90;;;;;;5078733;28;20020;-70
2023/03/02 10:54:41;;;;;;;12.70;7.78;;;5.60;99.90;;;;;;5097630;28;20024;-67
2023/03/02 10:57:29;;;;;;;11.60;7.50;;;5.60;99.90;;;;;;5095993;28;20012;-69
2023/03/02 11:00:13;;;;;;;11.65;7.75;;;5.70;99.90;;;;;;5094316;28;20467;-70
2023/03/02 11:02:47;;;;;;;;;;;5.70;99.90;;;;;;5078341;28;20022;-69
2023/03/02 11:05:28;;;;;;;9.98;6.28;;;5.80;99.90;;;;;;5096048;28;19919;-70
2023/03/02 11:07:55;;;;;;;10.35;6.72;;;5.80;99.90;;;;;;5085165;28;20020;-70
2023/03/02 11:10:23;;;;;;;11.00;7.07;;;5.80;99.90;;;;;;5078288;28;20035;-70
2023/03/02 11:12:51;;;;;;;9.85;6.50;;;5.80;99.90;;;;;;5096748;28;20438;-69
2023/03/02 11:15:39;;;;;;;10.70;6.70;;;5.90;99.90;;;;;;5095569;28;20051;-71
2023/03/02 11:18:15;;;;;;;10.15;6.85;;;5.90;99.90;;;;;;5096366;28;20051;-71
2023/03/02 11:20:45;;;;;;;9.40;6.85;;;6.00;99.90;;;;;;5076469;28;20030;-71
2023/03/02 11:23:20;;;;;;;12.85;7.68;;;6.00;99.90;;;;;;5077943;28;20077;-70
2023/03/02 11:25:55;;;;;;;10.35;6.85;;;6.10;99.90;;;;;;5095037;28;20048;-70
2023/03/02 11:28:41;;;;;;;12.20;7.97;;;6.10;99.90;;;;;;5091267;28;20411;-69
2023/03/02 11:31:45;;;;;;;9.98;6.47;;;6.20;99.90;;;;;;5074521;28;20093;-70
2023/03/02 11:34:22;;;;;;;10.90;7.32;;;6.30;99.90;;;;;;5061704;28;20128;-70
2023/03/02 11:37:02;;;;;;;12.82;7.85;;;6.30;99.90;;;;;;5093770;28;20023;-69
2023/03/02 11:39:52;;;;;;;12.57;7.55;;;6.40;99.90;;;;;;5095211;28;20032;-70
2023/03/02 11:42:20;;;;;;;9.85;6.47;;;6.40;99.90;;;;;;5093791;28;20493;-70
2023/03/02 11:44:47;;;;;;;9.85;6.97;;;6.40;99.90;;;;;;5073507;28;20061;-70
2023/03/02 11:47:13;;;;;;;10.55;6.72;;;6.40;99.90;;;;;;5077939;28;20026;-70
2023/03/02 11:49:46;;;;;;;12.10;8.18;;;6.50;99.90;;;;;;5093035;28;20148;-70
2023/03/02 11:52:20;;;;;;;9.65;7.10;;;6.50;99.90;;;;;;5093670;28;20028;-69
2023/03/02 11:55:13;;;;;;;10.25;7.45;;;6.60;99.90;;;;;;5091966;28;20052;-69
2023/03/02 11:57:49;;;;;;;11.52;7.03;;;6.60;99.90;;;;;;5086739;28;20040;-69
2023/03/02 12:00:23;;;;;;;11.68;7.43;;;6.60;99.90;;;;;;5095906;28;20488;-70
2023/03/02 12:03:14;;;;;;;10.43;7.05;;;6.70;99.90;;;;;;5096747;28;20062;-69
2023/03/02 12:05:42;;;;;;;11.40;7.38;;;6.70;99.90;;;;;;5098908;28;20043;-70
2023/03/02 12:08:14;;;;;;;11.43;6.93;;;6.70;99.90;;;;;;5100773;28;20079;-70
2023/03/02 12:10:42;;;;;;;10.68;7.70;;;6.80;99.90;;;;;;5099787;28;20087;-70
2023/03/02 12:13:22;;;;;;;11.43;8.02;;;6.80;99.90;;;;;;5098679;28;20067;-70
2023/03/02 12:15:55;;;;;;;11.55;7.07;;;6.80;99.90;;;;;;5076276;28;20093;-69
2023/03/02 12:18:20;;;;;;;11.00;7.10;;;6.80;99.90;;;;;;5093654;28;20024;-69
2023/03/02 12:20:59;;;;;;;12.63;7.53;;;6.90;99.90;;;;;;5100412;28;20658;-69
2023/03/02 12:23:25;;;;;;;10.73;7.35;;;6.90;99.90;;;;;;5100287;28;20087;-69
2023/03/02 12:26:24;;;;;;;10.35;6.57;;;7.00;99.90;;;;;;5100214;28;20457;-70
2023/03/02 12:28:58;;;;;;;10.00;6.55;;;7.00;99.90;;;;;;5074088;28;20032;-71
2023/03/02 12:31:24;;;;;;;9.27;6.63;;;7.10;99.90;;;;;;5081868;28;20119;-71
2023/03/02 12:33:51;;;;;;;10.23;6.90;;;7.10;99.90;;;;;;5100096;28;20031;-71
2023/03/02 12:36:38;;;;;;;10.70;7.60;;;7.10;99.90;;;;;;5100261;28;20028;-71
2023/03/02 12:39:15;;;;;;;10.93;7.05;;;7.10;99.90;;;;;;5081901;28;20432;-71
2023/03/02 12:42:06;;;;;;;9.90;6.65;;;7.20;99.90;;;;;;5099902;28;20103;-71
2023/03/02 12:45:00;;;;;;;10.00;6.32;;;7.20;99.90;;;;;;5081710;28;20059;-71
2023/03/02 12:47:28;;;;;;;9.82;6.97;;;7.20;99.90;;;;;;5099989;28;20023;-71
2023/03/02 12:49:56;;;;;;;11.13;7.20;;;7.30;99.40;;;;;;5086362;28;20052;-71
2023/03/02 12:52:27;;;;;;;11.60;7.63;;;7.30;99.10;;;;;;5081676;28;20024;-71
2023/03/02 12:55:16;;;;;;;10.32;7.57;;;7.30;99.20;;;;;;5100112;28;20024;-71
2023/03/02 12:57:53;;;;;;;11.18;7.85;;;7.30;99.60;;;;;;5082184;28;20024;-72
2023/03/02 13:00:25;;;;;;;12.27;7.63;;;7.40;99.90;;;;;;5099823;28;20024;-72
2023/03/02 13:02:53;;;;;;;8.95;6.82;;;7.40;99.10;;;;;;5099760;28;20024;-71
2023/03/02 13:05:28;;;;;;;9.90;7.30;;;7.40;98.20;;;;;;5099419;28;20024;-71
2023/03/02 13:08:02;;;;;;;9.85;6.68;;;7.50;98.80;;;;;;5081715;28;20484;-71
2023/03/02 13:10:40;;;;;;;10.13;6.72;;;7.50;98.60;;;;;;5099481;28;20365;-72